createdAt,value
2018-03-02T00:00:02.070Z,78.57
2018-03-02T00:04:05.632Z,79.28
2018-03-02T00:08:09.755Z,79.56
2018-03-02T00:12:13.906Z,79.43
2018-03-02T00:16:17.288Z,80.02
2018-03-02T00:20:21.515Z,80.23
2018-03-02T00:24:25.710Z,79.50
2018-03-02T00:28:29.095Z,79.18
2018-03-02T00:32:32.450Z,79.52
2018-03-02T00:36:36.586Z,79.22
2018-03-02T00:40:39.986Z,79.50
2018-03-02T00:44:44.119Z,79.96
2018-03-02T00:48:47.489Z,80.03
2018-03-02T00:52:50.874Z,80.17
2018-03-02T00:56:54.238Z,81.04
2018-03-02T01:00:57.614Z,81.90
2018-03-02T01:05:01.764Z,82.55
2018-03-02T01:09:05.165Z,82.50
2018-03-02T01:13:08.558Z,82.58
2018-03-02T01:17:12.704Z,83.02
2018-03-02T01:21:16.070Z,83.17
2018-03-02T01:25:20.231Z,83.08
2018-03-02T01:29:23.632Z,83.34
2018-03-02T01:33:27.768Z,83.21
2018-03-02T01:37:31.360Z,82.96
2018-03-02T01:41:35.493Z,83.18
2018-03-02T01:45:38.854Z,82.71
2018-03-02T01:49:42.219Z,82.63
2018-03-02T01:53:45.576Z,82.64
2018-03-02T01:57:48.940Z,82.56
2018-03-02T02:01:52.355Z,82.78
2018-03-02T02:05:55.728Z,82.89
2018-03-02T02:09:59.071Z,82.85
2018-03-02T02:14:02.441Z,83.18
2018-03-02T02:18:05.877Z,83.64
2018-03-02T02:22:09.265Z,81.30
2018-03-02T02:26:12.636Z,81.36
2018-03-02T02:30:16.764Z,79.60
2018-03-02T02:34:20.890Z,79.77
2018-03-02T02:38:25.031Z,79.03
2018-03-02T02:42:28.431Z,78.58
2018-03-02T02:46:31.796Z,79.49
2018-03-02T02:50:35.177Z,81.09
2018-03-02T02:54:38.577Z,81.29
2018-03-02T02:58:41.947Z,81.24
2018-03-02T03:02:45.346Z,80.65
2018-03-02T03:06:49.590Z,80.68
2018-03-02T03:10:52.965Z,80.41
2018-03-02T03:14:57.115Z,80.93
2018-03-02T03:19:00.480Z,80.59
2018-03-02T03:23:03.860Z,81.22
2018-03-02T03:27:07.230Z,80.89
2018-03-02T03:31:10.605Z,79.30
2018-03-02T03:35:14.804Z,80.23
2018-03-02T03:39:18.165Z,79.19
2018-03-02T03:43:21.537Z,76.92
2018-03-02T03:47:24.913Z,76.81
2018-03-02T03:51:28.277Z,76.76
2018-03-02T03:55:31.673Z,77.49
2018-03-02T03:59:35.831Z,76.44
2018-03-02T04:03:39.212Z,77.51
2018-03-02T04:07:42.575Z,76.72
2018-03-02T04:11:45.949Z,77.31
2018-03-02T04:15:49.326Z,77.06
2018-03-02T04:19:52.700Z,76.84
2018-03-02T04:23:56.065Z,76.00
2018-03-02T04:27:59.425Z,75.95
2018-03-02T04:32:03.554Z,75.65
2018-03-02T04:36:07.698Z,76.69
2018-03-02T04:40:11.079Z,76.03
2018-03-02T04:44:15.266Z,75.91
2018-03-02T04:48:18.625Z,76.07
2018-03-02T04:52:22.762Z,76.21
2018-03-02T04:56:26.269Z,75.18
2018-03-02T05:00:29.749Z,75.46
2018-03-02T05:04:33.875Z,76.06
2018-03-02T05:08:38.009Z,76.05
2018-03-02T05:12:41.389Z,76.09
2018-03-02T05:16:44.746Z,76.19
2018-03-02T05:20:48.162Z,76.95
2018-03-02T05:24:51.584Z,77.07
2018-03-02T05:28:54.941Z,77.23
2018-03-02T05:32:59.076Z,76.39
2018-03-02T05:37:02.581Z,76.96
2018-03-02T05:41:06.059Z,77.66
2018-03-02T05:45:10.251Z,77.31
2018-03-02T05:49:13.617Z,77.60
2018-03-02T05:53:16.993Z,77.48
2018-03-02T05:57:20.379Z,77.60
2018-03-02T06:01:23.747Z,78.09
2018-03-02T06:05:27.130Z,78.01
2018-03-02T06:09:31.273Z,77.65
2018-03-02T06:13:34.654Z,77.83
2018-03-02T06:17:38.788Z,78.00
2018-03-02T06:21:42.159Z,78.19
2018-03-02T06:25:45.524Z,78.08
2018-03-02T06:29:48.899Z,78.42
2018-03-02T06:33:53.037Z,78.35
2018-03-02T06:37:56.429Z,78.52
2018-03-02T06:41:59.844Z,78.20
2018-03-02T06:46:03.231Z,78.29
2018-03-02T06:50:07.369Z,78.09
2018-03-02T06:54:10.736Z,77.83
2018-03-02T06:58:14.877Z,77.59
2018-03-02T07:02:19.022Z,77.53
2018-03-02T07:06:22.388Z,77.13
2018-03-02T07:10:25.760Z,77.00
2018-03-02T07:14:29.132Z,76.47
2018-03-02T07:18:33.278Z,76.28
2018-03-02T07:22:36.622Z,76.30
2018-03-02T07:26:40.904Z,76.34
2018-03-02T07:30:44.279Z,76.14
2018-03-02T07:34:48.411Z,76.24
2018-03-02T07:38:52.535Z,76.08
2018-03-02T07:42:56.686Z,76.24
2018-03-02T07:47:00.054Z,76.28
2018-03-02T07:51:04.190Z,76.52
2018-03-02T07:55:08.317Z,76.43
2018-03-02T07:59:12.504Z,75.77
2018-03-02T08:03:16.060Z,75.05
2018-03-02T08:07:19.428Z,75.28
2018-03-02T08:11:22.810Z,75.35
2018-03-02T08:15:26.171Z,75.78
2018-03-02T08:19:29.553Z,75.40
2018-03-02T08:23:33.702Z,74.74
2018-03-02T08:27:37.061Z,74.84
2018-03-02T08:31:40.432Z,74.26
2018-03-02T08:35:43.950Z,73.50
2018-03-02T08:39:47.327Z,73.10
2018-03-02T08:43:50.765Z,72.86
2018-03-02T08:47:54.131Z,73.21
2018-03-02T08:51:57.586Z,72.79
2018-03-02T08:56:00.948Z,71.39
2018-03-02T09:00:04.386Z,71.81
2018-03-02T09:04:07.754Z,71.53
2018-03-02T09:08:11.886Z,71.32
2018-03-02T09:12:15.370Z,71.03
2018-03-02T09:16:19.519Z,71.00
2018-03-02T09:20:23.043Z,71.22
2018-03-02T09:24:26.440Z,70.23
2018-03-02T09:28:29.877Z,70.49
2018-03-02T09:32:33.331Z,70.24
2018-03-02T09:36:37.472Z,69.07
2018-03-02T09:40:40.867Z,69.44
2018-03-02T09:44:45.087Z,69.78
2018-03-02T09:48:49.256Z,69.46
2018-03-02T09:52:52.824Z,69.93
2018-03-02T09:56:56.972Z,68.58
2018-03-02T10:01:00.395Z,69.28
2018-03-02T10:05:03.745Z,69.22
2018-03-02T10:09:07.102Z,68.53
2018-03-02T10:13:10.474Z,67.82
2018-03-02T10:17:13.877Z,66.28
2018-03-02T10:21:17.993Z,66.32
2018-03-02T10:25:22.125Z,65.55
2018-03-02T10:29:26.243Z,65.95
2018-03-02T10:33:30.373Z,65.85
2018-03-02T10:37:34.527Z,66.20
2018-03-02T10:41:37.948Z,64.64
2018-03-02T10:45:41.339Z,64.50
2018-03-02T10:49:44.715Z,65.02
2018-03-02T10:53:48.855Z,64.90
2018-03-02T10:57:52.346Z,65.15
2018-03-02T11:01:56.574Z,64.43
2018-03-02T11:06:00.705Z,62.29
2018-03-02T11:10:04.070Z,62.80
2018-03-02T11:14:07.450Z,64.49
2018-03-02T11:18:10.796Z,65.03
2018-03-02T11:22:14.354Z,65.68
2018-03-02T11:26:17.748Z,67.50
2018-03-02T11:30:21.115Z,68.38
2018-03-02T11:34:24.485Z,67.80
2018-03-02T11:38:27.936Z,67.38
2018-03-02T11:42:31.301Z,69.79
2018-03-02T11:46:34.674Z,70.61
2018-03-02T11:50:38.057Z,75.49
2018-03-02T11:54:42.378Z,77.82
2018-03-02T11:58:46.620Z,74.06
2018-03-02T12:02:50.765Z,67.60
2018-03-02T12:06:54.118Z,61.80
2018-03-02T12:10:57.473Z,60.02
2018-03-02T12:15:00.824Z,59.09
2018-03-02T12:19:04.190Z,58.74
2018-03-02T12:23:07.546Z,61.42
2018-03-02T12:27:10.904Z,62.21
2018-03-02T12:31:14.282Z,61.53
2018-03-02T12:35:17.659Z,62.92
2018-03-02T12:39:21.804Z,61.73
2018-03-02T12:43:25.987Z,60.63
2018-03-02T12:47:29.362Z,61.79
2018-03-02T12:51:32.871Z,59.84
2018-03-02T12:55:36.224Z,60.32
2018-03-02T12:59:39.586Z,60.05
2018-03-02T13:03:42.990Z,60.55
2018-03-02T13:07:46.384Z,58.70
2018-03-02T13:11:49.741Z,57.29
2018-03-02T13:15:53.342Z,57.07
2018-03-02T13:19:56.696Z,58.08
2018-03-02T13:24:00.091Z,59.07
2018-03-02T13:28:21.848Z,61.42
2018-03-02T13:32:25.198Z,62.88
2018-03-02T13:36:28.597Z,62.21
2018-03-02T13:40:49.713Z,60.62
2018-03-02T13:44:53.216Z,63.46
2018-03-02T13:49:14.556Z,61.95
2018-03-02T13:53:17.921Z,59.33
2018-03-02T13:57:39.104Z,58.92
2018-03-02T14:01:42.510Z,59.27
2018-03-02T14:05:45.891Z,58.96
2018-03-02T14:09:49.262Z,62.02
2018-03-02T14:13:52.731Z,61.34
2018-03-02T14:17:56.278Z,61.95
2018-03-02T14:21:59.655Z,62.61
2018-03-02T14:26:03.789Z,61.36
2018-03-02T14:30:07.980Z,62.94
2018-03-02T14:34:12.170Z,63.65
2018-03-02T14:38:15.530Z,63.61
2018-03-02T14:42:23.030Z,63.31
2018-03-02T14:46:27.274Z,64.39
2018-03-02T14:50:31.429Z,66.61
2018-03-02T14:54:34.836Z,67.82
2018-03-02T14:58:38.249Z,66.96
2018-03-02T15:02:41.887Z,65.67
2018-03-02T15:06:45.280Z,65.98
2018-03-02T15:10:48.723Z,67.04
2018-03-02T15:14:52.893Z,67.77
2018-03-02T15:18:56.313Z,67.03
2018-03-02T15:22:59.833Z,66.24
2018-03-02T15:27:03.265Z,66.85
2018-03-02T15:31:07.458Z,67.42
2018-03-02T15:35:10.946Z,67.87
2018-03-02T15:39:14.501Z,69.84
2018-03-02T15:43:17.876Z,71.87
2018-03-02T15:47:22.852Z,73.70
2018-03-02T15:51:26.372Z,74.39
2018-03-02T15:55:30.723Z,74.02
2018-03-02T15:59:34.146Z,70.97
2018-03-02T16:03:37.563Z,68.91
2018-03-02T16:07:41.111Z,67.60
2018-03-02T16:11:45.308Z,69.27
2018-03-02T16:15:48.802Z,72.64
2018-03-02T16:19:52.200Z,77.33
2018-03-02T16:23:55.608Z,77.73
2018-03-02T16:27:59.024Z,75.60
2018-03-02T16:32:02.433Z,72.09
2018-03-02T16:36:05.857Z,71.23
2018-03-02T16:40:10.126Z,74.71
2018-03-02T16:44:14.358Z,76.99
2018-03-02T16:48:21.381Z,70.35
2018-03-02T16:52:25.492Z,69.20
2018-03-02T16:56:29.230Z,68.88
2018-03-02T17:00:33.417Z,67.01
2018-03-02T17:04:37.996Z,68.41
2018-03-02T17:08:41.991Z,69.41
2018-03-02T17:12:46.014Z,68.96
2018-03-02T17:16:49.467Z,68.92
2018-03-02T17:20:53.020Z,69.10
2018-03-02T17:24:56.434Z,67.97
2018-03-02T17:28:59.828Z,67.88
2018-03-02T17:33:03.419Z,66.80
2018-03-02T17:37:07.645Z,67.21
2018-03-02T17:41:11.797Z,67.44
2018-03-02T17:45:15.233Z,67.04
2018-03-02T17:49:18.580Z,66.88
2018-03-02T17:53:22.015Z,67.84
2018-03-02T17:57:25.485Z,67.96
2018-03-02T18:01:29.650Z,68.98
2018-03-02T18:05:33.025Z,68.37
2018-03-02T18:09:37.173Z,69.70
2018-03-02T18:13:40.589Z,69.50
2018-03-02T18:17:43.980Z,69.61
2018-03-02T18:21:47.480Z,69.25
2018-03-02T18:25:50.891Z,68.03
2018-03-02T18:29:54.253Z,69.09
2018-03-02T18:33:57.636Z,70.09
2018-03-02T18:38:01.051Z,68.92
2018-03-02T18:42:04.443Z,69.03
2018-03-02T18:46:07.831Z,70.24
2018-03-02T18:50:11.216Z,70.63
2018-03-02T18:54:15.395Z,71.16
2018-03-02T18:58:18.843Z,71.13
2018-03-02T19:02:22.225Z,69.61
2018-03-02T19:06:25.626Z,69.81
2018-03-02T19:10:29.039Z,70.60
2018-03-02T19:14:32.436Z,71.07
2018-03-02T19:18:37.334Z,71.78
2018-03-02T19:22:40.735Z,72.03
2018-03-02T19:26:44.132Z,72.34
2018-03-02T19:30:47.539Z,73.84
2018-03-02T19:34:51.051Z,74.42
2018-03-02T19:38:54.469Z,68.82
2018-03-02T19:42:57.870Z,68.77
2018-03-02T19:47:01.293Z,69.40
2018-03-02T19:51:04.827Z,69.65
2018-03-02T19:55:08.230Z,67.93
2018-03-02T19:59:11.665Z,69.13
2018-03-02T20:03:15.874Z,69.72
2018-03-02T20:07:20.070Z,68.38
2018-03-02T20:11:23.534Z,69.44
2018-03-02T20:15:27.835Z,68.97
2018-03-02T20:19:31.348Z,70.70
2018-03-02T20:23:34.744Z,69.76
2018-03-02T20:27:38.162Z,70.03
2018-03-02T20:31:41.682Z,72.01
2018-03-02T20:35:45.898Z,71.58
2018-03-02T20:39:50.062Z,71.12
2018-03-02T20:43:53.510Z,72.08
2018-03-02T20:47:56.939Z,73.57
2018-03-02T20:52:01.080Z,73.38
2018-03-02T20:56:05.230Z,73.42
2018-03-02T21:00:08.738Z,73.27
2018-03-02T21:04:12.151Z,73.65
2018-03-02T21:08:15.548Z,72.79
2018-03-02T21:12:18.932Z,71.78
2018-03-02T21:16:23.066Z,72.26
2018-03-02T21:20:26.485Z,72.73
2018-03-02T21:24:29.891Z,73.85
2018-03-02T21:28:33.439Z,73.79
2018-03-02T21:32:36.917Z,73.82
2018-03-02T21:36:40.297Z,74.18
2018-03-02T21:40:43.716Z,73.81
2018-03-02T21:44:47.116Z,74.33
2018-03-02T21:48:50.696Z,73.40
2018-03-02T21:52:54.134Z,72.89
2018-03-02T21:56:57.558Z,73.15
2018-03-02T22:01:01.063Z,73.21
2018-03-02T22:05:04.443Z,72.20
2018-03-02T22:09:08.627Z,71.86
2018-03-02T22:13:11.995Z,73.19
2018-03-02T22:17:16.303Z,72.33
2018-03-02T22:21:20.481Z,72.95
2018-03-02T22:25:23.972Z,72.56
2018-03-02T22:29:27.362Z,72.81
2018-03-02T22:33:30.933Z,72.54
2018-03-02T22:37:35.042Z,71.63
2018-03-02T22:41:38.411Z,71.88
2018-03-02T22:45:41.802Z,71.80
2018-03-02T22:49:45.184Z,72.00
2018-03-02T22:53:49.439Z,71.33
2018-03-02T22:57:52.828Z,70.80
2018-03-02T23:04:26.051Z,70.73
2018-03-02T23:08:29.642Z,70.56
2018-03-02T23:12:33.778Z,70.82
2018-03-02T23:16:37.216Z,71.28
2018-03-02T23:20:40.602Z,70.03
2018-03-02T23:24:43.985Z,70.87
2018-03-02T23:28:48.141Z,71.33
2018-03-02T23:32:51.538Z,70.49
2018-03-02T23:36:55.002Z,70.62
2018-03-02T23:40:58.374Z,70.56
2018-03-02T23:45:01.748Z,70.76
2018-03-02T23:49:05.134Z,70.76
2018-03-02T23:53:09.395Z,70.80
2018-03-02T23:57:12.776Z,70.72
